Terminal Aerodrome Forecast
Issued by NWS Charleston, WV

Current Version | Previous Version | Graphics & Text | Print | Product List | Glossary On
Versions: 1 2 3 4 5 6 7 8 9 10 11 12 13 14 15 16 17 18 19 20 21 22
000
FTUS41 KRLX 240539
TAFPKB
TAF
KPKB 240539Z 2406/2506 11008KT P6SM OVC080
      TEMPO 2409/2412 5SM -SHRA OVC040
     FM241200 09008KT P6SM OVC060
      TEMPO 2413/2415 2SM -SHRA OVC025
     FM241500 11008KT 5SM -SHRA OVC045
     FM241700 09007KT P6SM VCSH OVC040=

USA.gov is the U.S. government's official web portal to all federal, state and local government web resources and services.